sensor_id;sensor_type;location;lat;lon;timestamp;temperature;humidity
44487;DHT22;30191;50.908;6.962;2023-03-25T00:00:03;11.60;99.90
44487;DHT22;30191;50.908;6.962;2023-03-25T00:02:35;11.50;99.90
44487;DHT22;30191;50.908;6.962;2023-03-25T00:05:02;11.50;99.90
44487;DHT22;30191;50.908;6.962;2023-03-25T00:07:28;11.50;99.90
44487;DHT22;30191;50.908;6.962;2023-03-25T00:09:53;11.40;99.90
44487;DHT22;30191;50.908;6.962;2023-03-25T00:12:19;11.40;99.90
44487;DHT22;30191;50.908;6.962;2023-03-25T00:14:44;11.40;99.90
44487;DHT22;30191;50.908;6.962;2023-03-25T00:17:21;11.40;99.90
44487;DHT22;30191;50.908;6.962;2023-03-25T00:19:47;11.40;99.90
44487;DHT22;30191;50.908;6.962;2023-03-25T00:22:15;11.40;99.90
44487;DHT22;30191;50.908;6.962;2023-03-25T00:24:41;11.40;99.90
44487;DHT22;30191;50.908;6.962;2023-03-25T00:27:06;11.40;99.90
44487;DHT22;30191;50.908;6.962;2023-03-25T00:29:32;11.40;99.90
44487;DHT22;30191;50.908;6.962;2023-03-25T00:31:58;11.40;99.90
44487;DHT22;30191;50.908;6.962;2023-03-25T00:34:23;11.40;99.90
44487;DHT22;30191;50.908;6.962;2023-03-25T00:36:49;11.40;99.90
44487;DHT22;30191;50.908;6.962;2023-03-25T00:39:14;11.30;99.90
44487;DHT22;30191;50.908;6.962;2023-03-25T00:41:40;11.30;99.90
44487;DHT22;30191;50.908;6.962;2023-03-25T00:44:08;11.40;99.90
44487;DHT22;30191;50.908;6.962;2023-03-25T00:46:36;11.30;99.90
44487;DHT22;30191;50.908;6.962;2023-03-25T00:49:02;11.30;99.90
44487;DHT22;30191;50.908;6.962;2023-03-25T00:51:28;11.40;99.90
44487;DHT22;30191;50.908;6.962;2023-03-25T00:53:56;11.30;99.90
44487;DHT22;30191;50.908;6.962;2023-03-25T00:56:24;11.40;99.90
44487;DHT22;30191;50.908;6.962;2023-03-25T00:58:50;11.30;99.90
44487;DHT22;30191;50.908;6.962;2023-03-25T01:01:17;11.30;99.90
44487;DHT22;30191;50.908;6.962;2023-03-25T01:03:47;11.30;99.90
44487;DHT22;30191;50.908;6.962;2023-03-25T01:06:14;11.30;99.90
44487;DHT22;30191;50.908;6.962;2023-03-25T01:08:40;11.30;99.90
44487;DHT22;30191;50.908;6.962;2023-03-25T01:11:13;11.30;99.90
44487;DHT22;30191;50.908;6.962;2023-03-25T01:13:40;11.30;99.90
44487;DHT22;30191;50.908;6.962;2023-03-25T01:16:06;11.30;99.90
44487;DHT22;30191;50.908;6.962;2023-03-25T01:18:32;11.20;99.90
44487;DHT22;30191;50.908;6.962;2023-03-25T01:21:04;11.30;99.90
44487;DHT22;30191;50.908;6.962;2023-03-25T01:23:30;11.30;99.90
44487;DHT22;30191;50.908;6.962;2023-03-25T01:25:56;11.30;99.90
44487;DHT22;30191;50.908;6.962;2023-03-25T01:28:22;11.30;99.90
44487;DHT22;30191;50.908;6.962;2023-03-25T01:30:47;11.30;99.90
44487;DHT22;30191;50.908;6.962;2023-03-25T01:33:13;11.30;99.90
44487;DHT22;30191;50.908;6.962;2023-03-25T01:35:38;11.40;99.90
44487;DHT22;30191;50.908;6.962;2023-03-25T01:38:04;11.30;99.90
44487;DHT22;30191;50.908;6.962;2023-03-25T01:40:29;11.30;99.90
44487;DHT22;30191;50.908;6.962;2023-03-25T01:42:55;11.30;99.90
44487;DHT22;30191;50.908;6.962;2023-03-25T01:45:22;11.40;99.90
44487;DHT22;30191;50.908;6.962;2023-03-25T01:47:48;11.40;99.90
44487;DHT22;30191;50.908;6.962;2023-03-25T01:50:15;11.30;99.90
44487;DHT22;30191;50.908;6.962;2023-03-25T01:52:42;11.30;99.90
44487;DHT22;30191;50.908;6.962;2023-03-25T01:55:09;11.20;99.90
44487;DHT22;30191;50.908;6.962;2023-03-25T01:57:35;11.20;99.90
44487;DHT22;30191;50.908;6.962;2023-03-25T02:00:02;11.20;99.90
44487;DHT22;30191;50.908;6.962;2023-03-25T02:02:33;11.10;99.90
44487;DHT22;30191;50.908;6.962;2023-03-25T02:05:02;11.00;99.90
44487;DHT22;30191;50.908;6.962;2023-03-25T02:07:33;11.00;99.90
44487;DHT22;30191;50.908;6.962;2023-03-25T02:10:01;11.00;99.90
44487;DHT22;30191;50.908;6.962;2023-03-25T02:12:29;11.00;99.90
44487;DHT22;30191;50.908;6.962;2023-03-25T02:14:55;10.90;99.90
44487;DHT22;30191;50.908;6.962;2023-03-25T02:27:46;11.00;99.90
44487;DHT22;30191;50.908;6.962;2023-03-25T02:30:29;10.90;99.90
44487;DHT22;30191;50.908;6.962;2023-03-25T02:35:55;10.70;99.90
44487;DHT22;30191;50.908;6.962;2023-03-25T02:38:33;10.60;99.90
44487;DHT22;30191;50.908;6.962;2023-03-25T02:41:04;10.70;99.90
44487;DHT22;30191;50.908;6.962;2023-03-25T02:43:40;10.60;99.90
44487;DHT22;30191;50.908;6.962;2023-03-25T02:46:07;10.50;99.90
44487;DHT22;30191;50.908;6.962;2023-03-25T02:48:39;10.40;99.90
44487;DHT22;30191;50.908;6.962;2023-03-25T02:51:08;10.30;99.90
44487;DHT22;30191;50.908;6.962;2023-03-25T02:53:36;10.40;99.90
44487;DHT22;30191;50.908;6.962;2023-03-25T02:56:04;10.30;99.90
44487;DHT22;30191;50.908;6.962;2023-03-25T02:58:32;10.30;99.90
44487;DHT22;30191;50.908;6.962;2023-03-25T03:00:58;10.30;99.90
44487;DHT22;30191;50.908;6.962;2023-03-25T03:03:24;10.30;99.90
44487;DHT22;30191;50.908;6.962;2023-03-25T03:05:52;10.40;99.90
44487;DHT22;30191;50.908;6.962;2023-03-25T03:26:00;10.30;99.90
44487;DHT22;30191;50.908;6.962;2023-03-25T03:28:39;10.30;99.90
44487;DHT22;30191;50.908;6.962;2023-03-25T03:31:10;10.30;99.90
44487;DHT22;30191;50.908;6.962;2023-03-25T03:34:25;10.30;99.90
44487;DHT22;30191;50.908;6.962;2023-03-25T03:36:29;10.20;99.90
44487;DHT22;30191;50.908;6.962;2023-03-25T03:39:01;10.20;99.90
44487;DHT22;30191;50.908;6.962;2023-03-25T03:41:30;10.30;99.90
44487;DHT22;30191;50.908;6.962;2023-03-25T03:43:58;10.30;99.90
44487;DHT22;30191;50.908;6.962;2023-03-25T03:49:02;10.30;99.90
44487;DHT22;30191;50.908;6.962;2023-03-25T03:51:33;10.30;99.90
44487;DHT22;30191;50.908;6.962;2023-03-25T03:54:04;10.30;99.90
44487;DHT22;30191;50.908;6.962;2023-03-25T03:56:34;10.30;99.90
44487;DHT22;30191;50.908;6.962;2023-03-25T03:59:03;10.30;99.90
44487;DHT22;30191;50.908;6.962;2023-03-25T04:04:04;10.30;99.90
44487;DHT22;30191;50.908;6.962;2023-03-25T04:06:38;10.30;99.90
44487;DHT22;30191;50.908;6.962;2023-03-25T04:11:43;10.30;99.90
44487;DHT22;30191;50.908;6.962;2023-03-25T04:14:11;10.20;99.90
44487;DHT22;30191;50.908;6.962;2023-03-25T04:16:37;10.20;99.90
44487;DHT22;30191;50.908;6.962;2023-03-25T04:19:03;10.20;99.90
44487;DHT22;30191;50.908;6.962;2023-03-25T04:21:29;10.20;99.90
44487;DHT22;30191;50.908;6.962;2023-03-25T04:23:55;10.20;99.90
44487;DHT22;30191;50.908;6.962;2023-03-25T04:26:20;10.20;99.90
44487;DHT22;30191;50.908;6.962;2023-03-25T04:28:46;10.30;99.90
44487;DHT22;30191;50.908;6.962;2023-03-25T04:31:15;10.30;99.90
44487;DHT22;30191;50.908;6.962;2023-03-25T04:33:41;10.30;99.90
44487;DHT22;30191;50.908;6.962;2023-03-25T04:36:11;10.30;99.90
44487;DHT22;30191;50.908;6.962;2023-03-25T04:38:38;10.30;99.90
44487;DHT22;30191;50.908;6.962;2023-03-25T04:41:05;10.30;99.90
44487;DHT22;30191;50.908;6.962;2023-03-25T04:43:31;10.30;99.90
44487;DHT22;30191;50.908;6.962;2023-03-25T04:45:57;10.30;99.90
44487;DHT22;30191;50.908;6.962;2023-03-25T04:48:33;10.30;99.90
44487;DHT22;30191;50.908;6.962;2023-03-25T04:51:00;10.30;99.90
44487;DHT22;30191;50.908;6.962;2023-03-25T04:53:28;10.30;99.90
44487;DHT22;30191;50.908;6.962;2023-03-25T04:55:54;10.40;99.90
44487;DHT22;30191;50.908;6.962;2023-03-25T04:58:20;10.40;99.90
44487;DHT22;30191;50.908;6.962;2023-03-25T05:00:47;10.40;99.90
44487;DHT22;30191;50.908;6.962;2023-03-25T05:03:17;10.40;99.90
44487;DHT22;30191;50.908;6.962;2023-03-25T05:05:48;10.40;99.90
44487;DHT22;30191;50.908;6.962;2023-03-25T05:08:14;10.40;99.90
44487;DHT22;30191;50.908;6.962;2023-03-25T05:10:39;10.50;99.90
44487;DHT22;30191;50.908;6.962;2023-03-25T05:13:07;10.50;99.90
44487;DHT22;30191;50.908;6.962;2023-03-25T05:15:34;10.50;99.90
44487;DHT22;30191;50.908;6.962;2023-03-25T05:18:10;10.40;99.90
44487;DHT22;30191;50.908;6.962;2023-03-25T05:20:40;10.40;99.90
44487;DHT22;30191;50.908;6.962;2023-03-25T05:23:06;10.40;99.90
44487;DHT22;30191;50.908;6.962;2023-03-25T05:25:37;10.50;99.90
44487;DHT22;30191;50.908;6.962;2023-03-25T05:28:02;10.40;99.90
44487;DHT22;30191;50.908;6.962;2023-03-25T05:30:33;10.50;99.90
44487;DHT22;30191;50.908;6.962;2023-03-25T05:33:06;10.50;99.90
44487;DHT22;30191;50.908;6.962;2023-03-25T05:35:32;10.50;99.90
44487;DHT22;30191;50.908;6.962;2023-03-25T05:37:58;10.50;99.90
44487;DHT22;30191;50.908;6.962;2023-03-25T05:40:23;10.40;99.90
44487;DHT22;30191;50.908;6.962;2023-03-25T05:42:49;10.40;99.90
44487;DHT22;30191;50.908;6.962;2023-03-25T05:45:19;10.40;99.90
44487;DHT22;30191;50.908;6.962;2023-03-25T05:47:44;10.40;99.90
44487;DHT22;30191;50.908;6.962;2023-03-25T05:50:10;10.40;99.90
44487;DHT22;30191;50.908;6.962;2023-03-25T05:52:36;10.40;99.90
44487;DHT22;30191;50.908;6.962;2023-03-25T05:55:01;10.40;99.90
44487;DHT22;30191;50.908;6.962;2023-03-25T05:57:27;10.40;99.90
44487;DHT22;30191;50.908;6.962;2023-03-25T05:59:53;10.40;99.90
44487;DHT22;30191;50.908;6.962;2023-03-25T06:02:20;10.50;99.90
44487;DHT22;30191;50.908;6.962;2023-03-25T06:04:49;10.40;99.90
44487;DHT22;30191;50.908;6.962;2023-03-25T06:07:15;10.50;99.90
44487;DHT22;30191;50.908;6.962;2023-03-25T06:09:50;10.40;99.90
44487;DHT22;30191;50.908;6.962;2023-03-25T06:12:19;10.50;99.90
44487;DHT22;30191;50.908;6.962;2023-03-25T06:14:45;10.40;99.90
44487;DHT22;30191;50.908;6.962;2023-03-25T06:17:12;10.50;99.90
44487;DHT22;30191;50.908;6.962;2023-03-25T06:19:37;10.50;99.90
44487;DHT22;30191;50.908;6.962;2023-03-25T06:22:04;10.50;99.90
44487;DHT22;30191;50.908;6.962;2023-03-25T06:24:30;10.60;99.90
44487;DHT22;30191;50.908;6.962;2023-03-25T06:26:56;10.50;99.90
44487;DHT22;30191;50.908;6.962;2023-03-25T06:29:21;10.60;99.90
44487;DHT22;30191;50.908;6.962;2023-03-25T06:31:47;10.60;99.90
44487;DHT22;30191;50.908;6.962;2023-03-25T06:34:12;10.60;99.90
44487;DHT22;30191;50.908;6.962;2023-03-25T06:36:38;10.60;99.90
44487;DHT22;30191;50.908;6.962;2023-03-25T06:39:03;10.60;99.90
44487;DHT22;30191;50.908;6.962;2023-03-25T06:41:30;10.70;99.90
44487;DHT22;30191;50.908;6.962;2023-03-25T06:43:55;10.70;99.90
44487;DHT22;30191;50.908;6.962;2023-03-25T06:46:21;10.70;99.90
44487;DHT22;30191;50.908;6.962;2023-03-25T06:48:47;10.70;99.90
44487;DHT22;30191;50.908;6.962;2023-03-25T06:51:13;10.70;99.90
44487;DHT22;30191;50.908;6.962;2023-03-25T06:53:38;10.70;99.90
44487;DHT22;30191;50.908;6.962;2023-03-25T06:56:04;10.80;99.90
44487;DHT22;30191;50.908;6.962;2023-03-25T06:58:30;10.80;99.90
44487;DHT22;30191;50.908;6.962;2023-03-25T07:00:59;10.80;99.90
44487;DHT22;30191;50.908;6.962;2023-03-25T07:03:28;10.80;99.90
44487;DHT22;30191;50.908;6.962;2023-03-25T07:05:54;10.70;99.90
44487;DHT22;30191;50.908;6.962;2023-03-25T07:08:19;10.60;99.90
44487;DHT22;30191;50.908;6.962;2023-03-25T07:10:45;10.50;99.90
44487;DHT22;30191;50.908;6.962;2023-03-25T07:13:10;10.50;99.90
44487;DHT22;30191;50.908;6.962;2023-03-25T07:15:36;10.40;99.90
44487;DHT22;30191;50.908;6.962;2023-03-25T07:18:01;10.30;99.90
44487;DHT22;30191;50.908;6.962;2023-03-25T07:20:27;10.30;99.90
44487;DHT22;30191;50.908;6.962;2023-03-25T07:22:53;10.30;99.90
44487;DHT22;30191;50.908;6.962;2023-03-25T07:25:19;10.30;99.90
44487;DHT22;30191;50.908;6.962;2023-03-25T07:27:45;10.30;99.90
44487;DHT22;30191;50.908;6.962;2023-03-25T07:30:11;10.30;99.90
44487;DHT22;30191;50.908;6.962;2023-03-25T07:32:36;10.30;99.90
44487;DHT22;30191;50.908;6.962;2023-03-25T07:35:02;10.40;99.90
44487;DHT22;30191;50.908;6.962;2023-03-25T07:37:28;10.40;99.90
44487;DHT22;30191;50.908;6.962;2023-03-25T07:39:53;10.40;99.90
44487;DHT22;30191;50.908;6.962;2023-03-25T07:42:19;10.40;99.90
44487;DHT22;30191;50.908;6.962;2023-03-25T07:44:44;10.50;99.90
44487;DHT22;30191;50.908;6.962;2023-03-25T07:47:10;10.40;99.90
44487;DHT22;30191;50.908;6.962;2023-03-25T07:49:35;10.40;99.90
44487;DHT22;30191;50.908;6.962;2023-03-25T07:52:05;10.40;99.90
44487;DHT22;30191;50.908;6.962;2023-03-25T07:54:31;10.40;99.90
44487;DHT22;30191;50.908;6.962;2023-03-25T07:56:56;10.40;99.90
44487;DHT22;30191;50.908;6.962;2023-03-25T07:59:21;10.40;99.90
44487;DHT22;30191;50.908;6.962;2023-03-25T08:01:47;10.40;99.90
44487;DHT22;30191;50.908;6.962;2023-03-25T08:04:13;10.40;99.90
44487;DHT22;30191;50.908;6.962;2023-03-25T08:06:38;10.40;99.90
44487;DHT22;30191;50.908;6.962;2023-03-25T08:09:04;10.40;99.90
44487;DHT22;30191;50.908;6.962;2023-03-25T08:11:31;10.40;99.90
44487;DHT22;30191;50.908;6.962;2023-03-25T08:13:56;10.50;99.90
44487;DHT22;30191;50.908;6.962;2023-03-25T08:16:22;10.50;99.90
44487;DHT22;30191;50.908;6.962;2023-03-25T08:18:47;10.50;99.90
44487;DHT22;30191;50.908;6.962;2023-03-25T08:21:17;10.50;99.90
44487;DHT22;30191;50.908;6.962;2023-03-25T08:23:46;10.60;99.90
44487;DHT22;30191;50.908;6.962;2023-03-25T08:26:12;10.50;99.90
44487;DHT22;30191;50.908;6.962;2023-03-25T08:28:37;10.60;99.90
44487;DHT22;30191;50.908;6.962;2023-03-25T08:31:04;10.50;99.90
44487;DHT22;30191;50.908;6.962;2023-03-25T08:33:30;10.50;99.90
44487;DHT22;30191;50.908;6.962;2023-03-25T08:36:04;10.50;99.90
44487;DHT22;30191;50.908;6.962;2023-03-25T08:38:29;10.50;99.90
44487;DHT22;30191;50.908;6.962;2023-03-25T08:40:58;10.60;99.90
44487;DHT22;30191;50.908;6.962;2023-03-25T08:43:24;10.70;99.90
44487;DHT22;30191;50.908;6.962;2023-03-25T08:45:49;10.80;99.90
44487;DHT22;30191;50.908;6.962;2023-03-25T08:48:15;10.80;99.90
44487;DHT22;30191;50.908;6.962;2023-03-25T08:50:40;10.80;99.90
44487;DHT22;30191;50.908;6.962;2023-03-25T08:53:06;10.80;99.90
44487;DHT22;30191;50.908;6.962;2023-03-25T08:55:32;10.80;99.90
44487;DHT22;30191;50.908;6.962;2023-03-25T08:58:01;10.90;99.90
44487;DHT22;30191;50.908;6.962;2023-03-25T09:00:26;10.90;99.90
44487;DHT22;30191;50.908;6.962;2023-03-25T09:02:52;11.00;99.90
44487;DHT22;30191;50.908;6.962;2023-03-25T09:05:18;11.00;99.90
44487;DHT22;30191;50.908;6.962;2023-03-25T09:07:44;11.00;99.90
44487;DHT22;30191;50.908;6.962;2023-03-25T09:10:10;10.90;99.90
44487;DHT22;30191;50.908;6.962;2023-03-25T09:12:37;10.90;99.90
44487;DHT22;30191;50.908;6.962;2023-03-25T09:15:02;11.00;99.90
44487;DHT22;30191;50.908;6.962;2023-03-25T09:17:28;11.00;99.90
44487;DHT22;30191;50.908;6.962;2023-03-25T09:19:55;11.10;99.90
44487;DHT22;30191;50.908;6.962;2023-03-25T09:22:21;11.10;99.90
44487;DHT22;30191;50.908;6.962;2023-03-25T09:24:46;11.00;99.90
44487;DHT22;30191;50.908;6.962;2023-03-25T09:27:12;11.10;99.90
44487;DHT22;30191;50.908;6.962;2023-03-25T09:29:37;11.00;99.90
44487;DHT22;30191;50.908;6.962;2023-03-25T09:32:03;11.10;99.90
44487;DHT22;30191;50.908;6.962;2023-03-25T09:34:28;11.10;99.90
44487;DHT22;30191;50.908;6.962;2023-03-25T09:36:55;11.10;99.90
44487;DHT22;30191;50.908;6.962;2023-03-25T09:39:21;11.20;99.90
44487;DHT22;30191;50.908;6.962;2023-03-25T09:44:23;11.20;99.90
44487;DHT22;30191;50.908;6.962;2023-03-25T09:46:51;11.40;99.90
44487;DHT22;30191;50.908;6.962;2023-03-25T09:49:19;11.40;99.90
44487;DHT22;30191;50.908;6.962;2023-03-25T09:51:46;11.40;99.90
44487;DHT22;30191;50.908;6.962;2023-03-25T09:54:15;11.40;99.90
44487;DHT22;30191;50.908;6.962;2023-03-25T09:56:42;11.30;99.90
44487;DHT22;30191;50.908;6.962;2023-03-25T09:59:18;11.40;99.90
44487;DHT22;30191;50.908;6.962;2023-03-25T10:04:50;11.50;99.90
44487;DHT22;30191;50.908;6.962;2023-03-25T10:25:35;11.70;99.90
44487;DHT22;30191;50.908;6.962;2023-03-25T10:28:02;11.60;99.90
44487;DHT22;30191;50.908;6.962;2023-03-25T10:30:42;11.50;99.90
44487;DHT22;30191;50.908;6.962;2023-03-25T10:33:17;11.30;99.90
44487;DHT22;30191;50.908;6.962;2023-03-25T10:35:46;11.30;99.90
44487;DHT22;30191;50.908;6.962;2023-03-25T10:38:19;11.20;99.90
44487;DHT22;30191;50.908;6.962;2023-03-25T10:40:46;11.10;99.90
44487;DHT22;30191;50.908;6.962;2023-03-25T10:43:28;11.20;99.90
44487;DHT22;30191;50.908;6.962;2023-03-25T10:45:56;11.20;99.90
44487;DHT22;30191;50.908;6.962;2023-03-25T10:48:25;11.20;99.90
44487;DHT22;30191;50.908;6.962;2023-03-25T10:51:00;11.40;99.90
44487;DHT22;30191;50.908;6.962;2023-03-25T10:53:27;11.50;99.90
44487;DHT22;30191;50.908;6.962;2023-03-25T10:55:59;11.60;99.90
44487;DHT22;30191;50.908;6.962;2023-03-25T10:58:26;11.70;99.90
44487;DHT22;30191;50.908;6.962;2023-03-25T11:00:52;11.80;99.90
44487;DHT22;30191;50.908;6.962;2023-03-25T11:03:19;11.90;99.90
44487;DHT22;30191;50.908;6.962;2023-03-25T11:05:45;11.70;99.90
44487;DHT22;30191;50.908;6.962;2023-03-25T11:08:11;11.60;99.90
44487;DHT22;30191;50.908;6.962;2023-03-25T11:10:37;11.50;99.90
44487;DHT22;30191;50.908;6.962;2023-03-25T11:13:03;11.30;99.90
44487;DHT22;30191;50.908;6.962;2023-03-25T11:15:35;11.30;99.90
44487;DHT22;30191;50.908;6.962;2023-03-25T11:20:29;11.40;99.90
44487;DHT22;30191;50.908;6.962;2023-03-25T11:22:58;11.60;99.90
44487;DHT22;30191;50.908;6.962;2023-03-25T11:25:28;11.70;99.90
44487;DHT22;30191;50.908;6.962;2023-03-25T11:27:55;11.80;99.90
44487;DHT22;30191;50.908;6.962;2023-03-25T11:30:22;11.90;99.90
44487;DHT22;30191;50.908;6.962;2023-03-25T11:32:58;12.10;99.90
44487;DHT22;30191;50.908;6.962;2023-03-25T11:35:26;12.20;99.90
44487;DHT22;30191;50.908;6.962;2023-03-25T11:37:53;12.20;99.90
44487;DHT22;30191;50.908;6.962;2023-03-25T11:40:20;12.30;99.90
44487;DHT22;30191;50.908;6.962;2023-03-25T11:42:50;12.20;99.90
44487;DHT22;30191;50.908;6.962;2023-03-25T11:45:20;12.20;99.90
44487;DHT22;30191;50.908;6.962;2023-03-25T11:47:46;12.20;99.90
44487;DHT22;30191;50.908;6.962;2023-03-25T11:50:19;12.40;99.90
44487;DHT22;30191;50.908;6.962;2023-03-25T11:52:45;12.50;99.90
44487;DHT22;30191;50.908;6.962;2023-03-25T11:55:18;12.50;99.90
44487;DHT22;30191;50.908;6.962;2023-03-25T11:57:45;12.50;99.90
44487;DHT22;30191;50.908;6.962;2023-03-25T12:00:18;12.60;99.90
44487;DHT22;30191;50.908;6.962;2023-03-25T12:02:45;12.70;99.90
44487;DHT22;30191;50.908;6.962;2023-03-25T12:05:12;12.90;99.90
44487;DHT22;30191;50.908;6.962;2023-03-25T12:10:06;12.90;99.90
44487;DHT22;30191;50.908;6.962;2023-03-25T12:15:06;12.90;99.90
44487;DHT22;30191;50.908;6.962;2023-03-25T12:25:40;13.00;99.90
44487;DHT22;30191;50.908;6.962;2023-03-25T12:35:53;13.70;99.90
44487;DHT22;30191;50.908;6.962;2023-03-25T12:43:21;13.90;99.90
44487;DHT22;30191;50.908;6.962;2023-03-25T12:51:06;14.10;99.90
44487;DHT22;30191;50.908;6.962;2023-03-25T12:54:20;14.30;99.90
44487;DHT22;30191;50.908;6.962;2023-03-25T12:59:14;14.50;99.90
44487;DHT22;30191;50.908;6.962;2023-03-25T13:07:05;14.10;99.90
44487;DHT22;30191;50.908;6.962;2023-03-25T13:12:02;14.80;99.90
44487;DHT22;30191;50.908;6.962;2023-03-25T13:14:29;14.80;99.90
44487;DHT22;30191;50.908;6.962;2023-03-25T13:16:58;14.70;99.90
44487;DHT22;30191;50.908;6.962;2023-03-25T13:19:26;14.30;99.90
44487;DHT22;30191;50.908;6.962;2023-03-25T13:21:53;14.20;99.90
44487;DHT22;30191;50.908;6.962;2023-03-25T13:24:26;14.00;99.90
44487;DHT22;30191;50.908;6.962;2023-03-25T13:26:54;13.90;99.90
44487;DHT22;30191;50.908;6.962;2023-03-25T13:29:23;13.70;99.90
44487;DHT22;30191;50.908;6.962;2023-03-25T13:31:49;13.70;99.90
44487;DHT22;30191;50.908;6.962;2023-03-25T13:42:33;13.40;99.90
44487;DHT22;30191;50.908;6.962;2023-03-25T13:45:01;13.30;99.90
44487;DHT22;30191;50.908;6.962;2023-03-25T13:47:36;13.30;99.90
44487;DHT22;30191;50.908;6.962;2023-03-25T13:52:48;13.20;99.90
44487;DHT22;30191;50.908;6.962;2023-03-25T13:55:17;13.00;99.90
44487;DHT22;30191;50.908;6.962;2023-03-25T14:11:25;11.00;99.90
44487;DHT22;30191;50.908;6.962;2023-03-25T14:13:34;10.90;99.90
44487;DHT22;30191;50.908;6.962;2023-03-25T14:16:06;10.80;99.90
44487;DHT22;30191;50.908;6.962;2023-03-25T14:18:39;10.80;99.90
44487;DHT22;30191;50.908;6.962;2023-03-25T14:26:28;13.10;99.90
44487;DHT22;30191;50.908;6.962;2023-03-25T14:28:54;13.30;99.90
44487;DHT22;30191;50.908;6.962;2023-03-25T14:34:30;12.70;99.90
44487;DHT22;30191;50.908;6.962;2023-03-25T14:39:14;16.60;99.90
44487;DHT22;30191;50.908;6.962;2023-03-25T14:42:00;18.00;99.90
44487;DHT22;30191;50.908;6.962;2023-03-25T14:44:30;19.30;99.90
44487;DHT22;30191;50.908;6.962;2023-03-25T14:47:00;21.20;99.10
44487;DHT22;30191;50.908;6.962;2023-03-25T14:49:45;20.40;99.50
44487;DHT22;30191;50.908;6.962;2023-03-25T14:52:11;20.10;98.70
44487;DHT22;30191;50.908;6.962;2023-03-25T14:54:38;18.40;99.90
44487;DHT22;30191;50.908;6.962;2023-03-25T14:59:32;16.40;99.90
44487;DHT22;30191;50.908;6.962;2023-03-25T15:02:01;16.30;99.90
44487;DHT22;30191;50.908;6.962;2023-03-25T15:04:31;15.90;99.90
44487;DHT22;30191;50.908;6.962;2023-03-25T15:06:58;14.70;99.90
44487;DHT22;30191;50.908;6.962;2023-03-25T15:09:26;14.40;99.90
44487;DHT22;30191;50.908;6.962;2023-03-25T15:11:55;13.70;99.90
44487;DHT22;30191;50.908;6.962;2023-03-25T15:14:22;13.50;99.90
44487;DHT22;30191;50.908;6.962;2023-03-25T15:19:15;12.70;99.90
44487;DHT22;30191;50.908;6.962;2023-03-25T15:24:25;12.50;99.90
44487;DHT22;30191;50.908;6.962;2023-03-25T15:26:52;12.50;99.90
44487;DHT22;30191;50.908;6.962;2023-03-25T15:32:00;12.50;99.90
44487;DHT22;30191;50.908;6.962;2023-03-25T15:34:36;12.50;99.90
44487;DHT22;30191;50.908;6.962;2023-03-25T15:40:05;13.20;99.90
44487;DHT22;30191;50.908;6.962;2023-03-25T15:50:19;13.90;99.90
44487;DHT22;30191;50.908;6.962;2023-03-25T15:55:19;14.20;99.90
44487;DHT22;30191;50.908;6.962;2023-03-25T15:57:48;14.20;99.90
44487;DHT22;30191;50.908;6.962;2023-03-25T16:05:31;13.40;99.90
44487;DHT22;30191;50.908;6.962;2023-03-25T16:07:58;13.20;99.90
44487;DHT22;30191;50.908;6.962;2023-03-25T16:10:30;13.10;99.90
44487;DHT22;30191;50.908;6.962;2023-03-25T16:13:21;13.00;99.90
44487;DHT22;30191;50.908;6.962;2023-03-25T16:15:53;13.00;99.90
44487;DHT22;30191;50.908;6.962;2023-03-25T16:18:19;13.30;99.90
44487;DHT22;30191;50.908;6.962;2023-03-25T16:20:46;13.60;99.90
44487;DHT22;30191;50.908;6.962;2023-03-25T16:23:16;13.80;99.90
44487;DHT22;30191;50.908;6.962;2023-03-25T16:25:42;14.00;99.90
44487;DHT22;30191;50.908;6.962;2023-03-25T16:30:54;14.20;99.90
44487;DHT22;30191;50.908;6.962;2023-03-25T16:33:29;14.20;99.90
44487;DHT22;30191;50.908;6.962;2023-03-25T16:35:59;14.20;99.90
44487;DHT22;30191;50.908;6.962;2023-03-25T16:38:26;14.00;99.90
44487;DHT22;30191;50.908;6.962;2023-03-25T16:40:58;13.90;99.90
44487;DHT22;30191;50.908;6.962;2023-03-25T16:43:24;13.70;99.90
44487;DHT22;30191;50.908;6.962;2023-03-25T16:45:52;13.60;99.90
44487;DHT22;30191;50.908;6.962;2023-03-25T16:48:21;13.40;99.90
44487;DHT22;30191;50.908;6.962;2023-03-25T16:50:46;13.40;99.90
44487;DHT22;30191;50.908;6.962;2023-03-25T16:53:13;13.40;99.90
44487;DHT22;30191;50.908;6.962;2023-03-25T16:58:08;13.20;99.90
44487;DHT22;30191;50.908;6.962;2023-03-25T17:00:38;13.10;99.90
44487;DHT22;30191;50.908;6.962;2023-03-25T17:03:10;13.10;99.90
44487;DHT22;30191;50.908;6.962;2023-03-25T17:05:36;13.00;99.90
44487;DHT22;30191;50.908;6.962;2023-03-25T17:08:13;13.00;99.90
44487;DHT22;30191;50.908;6.962;2023-03-25T17:10:48;12.60;99.90
44487;DHT22;30191;50.908;6.962;2023-03-25T17:13:16;12.30;99.90
44487;DHT22;30191;50.908;6.962;2023-03-25T17:15:45;12.20;99.90
44487;DHT22;30191;50.908;6.962;2023-03-25T17:18:12;12.10;99.90
44487;DHT22;30191;50.908;6.962;2023-03-25T17:20:39;12.00;99.90
44487;DHT22;30191;50.908;6.962;2023-03-25T17:25:33;12.00;99.90
44487;DHT22;30191;50.908;6.962;2023-03-25T17:28:04;12.00;99.90
44487;DHT22;30191;50.908;6.962;2023-03-25T17:30:38;12.00;99.90
44487;DHT22;30191;50.908;6.962;2023-03-25T17:33:08;12.00;99.90
44487;DHT22;30191;50.908;6.962;2023-03-25T17:35:35;11.90;99.90
44487;DHT22;30191;50.908;6.962;2023-03-25T17:38:01;11.90;99.90
44487;DHT22;30191;50.908;6.962;2023-03-25T17:40:27;11.90;99.90
44487;DHT22;30191;50.908;6.962;2023-03-25T17:42:54;11.90;99.90
44487;DHT22;30191;50.908;6.962;2023-03-25T17:45:20;11.80;99.90
44487;DHT22;30191;50.908;6.962;2023-03-25T17:47:47;11.80;99.90
44487;DHT22;30191;50.908;6.962;2023-03-25T17:50:14;11.80;99.90
44487;DHT22;30191;50.908;6.962;2023-03-25T17:52:40;11.70;99.90
44487;DHT22;30191;50.908;6.962;2023-03-25T17:55:06;11.80;99.90
44487;DHT22;30191;50.908;6.962;2023-03-25T17:57:32;11.80;99.90
44487;DHT22;30191;50.908;6.962;2023-03-25T17:59:57;11.80;99.90
44487;DHT22;30191;50.908;6.962;2023-03-25T18:02:23;11.70;99.90
44487;DHT22;30191;50.908;6.962;2023-03-25T18:04:48;11.70;99.90
44487;DHT22;30191;50.908;6.962;2023-03-25T18:07:14;11.70;99.90
44487;DHT22;30191;50.908;6.962;2023-03-25T18:09:40;11.80;99.90
44487;DHT22;30191;50.908;6.962;2023-03-25T18:12:06;11.70;99.90
44487;DHT22;30191;50.908;6.962;2023-03-25T18:14:31;11.70;99.90
44487;DHT22;30191;50.908;6.962;2023-03-25T18:16:57;11.80;99.90
44487;DHT22;30191;50.908;6.962;2023-03-25T18:19:24;11.70;99.90
44487;DHT22;30191;50.908;6.962;2023-03-25T18:21:50;11.60;99.90
44487;DHT22;30191;50.908;6.962;2023-03-25T18:24:15;11.50;99.90
44487;DHT22;30191;50.908;6.962;2023-03-25T18:26:42;11.30;99.90
44487;DHT22;30191;50.908;6.962;2023-03-25T18:29:16;11.20;99.90
44487;DHT22;30191;50.908;6.962;2023-03-25T18:31:42;11.10;99.90